sensor_id;sensor_type;location;lat;lon;timestamp;P1;durP1;ratioP1;P2;durP2;ratioP2
34152;SDS011;20426;48.372;10.888;2023-05-10T00:00:04;3.17;;;1.50;;
34152;SDS011;20426;48.372;10.888;2023-05-10T00:00:36;1.40;;;1.30;;
34152;SDS011;20426;48.372;10.888;2023-05-10T00:01:06;1.42;;;1.27;;
34152;SDS011;20426;48.372;10.888;2023-05-10T00:01:37;2.25;;;1.42;;
34152;SDS011;20426;48.372;10.888;2023-05-10T00:02:08;1.52;;;1.30;;
34152;SDS011;20426;48.372;10.888;2023-05-10T00:02:39;1.45;;;1.17;;
34152;SDS011;20426;48.372;10.888;2023-05-10T00:03:10;1.40;;;1.30;;
34152;SDS011;20426;48.372;10.888;2023-05-10T00:03:41;1.48;;;1.38;;
34152;SDS011;20426;48.372;10.888;2023-05-10T00:04:11;1.60;;;1.50;;
34152;SDS011;20426;48.372;10.888;2023-05-10T00:04:42;1.40;;;1.30;;
34152;SDS011;20426;48.372;10.888;2023-05-10T00:05:13;1.77;;;1.23;;
34152;SDS011;20426;48.372;10.888;2023-05-10T00:05:43;1.33;;;1.20;;
34152;SDS011;20426;48.372;10.888;2023-05-10T00:06:14;2.15;;;1.27;;
34152;SDS011;20426;48.372;10.888;2023-05-10T00:06:45;1.55;;;1.30;;
34152;SDS011;20426;48.372;10.888;2023-05-10T00:07:16;1.50;;;1.40;;
34152;SDS011;20426;48.372;10.888;2023-05-10T00:07:49;1.88;;;1.50;;
34152;SDS011;20426;48.372;10.888;2023-05-10T00:08:20;1.60;;;1.50;;
34152;SDS011;20426;48.372;10.888;2023-05-10T00:08:51;2.92;;;1.38;;
34152;SDS011;20426;48.372;10.888;2023-05-10T00:09:21;1.90;;;1.58;;
34152;SDS011;20426;48.372;10.888;2023-05-10T00:09:52;1.40;;;1.27;;
34152;SDS011;20426;48.372;10.888;2023-05-10T00:10:23;1.50;;;1.40;;
34152;SDS011;20426;48.372;10.888;2023-05-10T00:10:53;4.47;;;1.58;;
34152;SDS011;20426;48.372;10.888;2023-05-10T00:11:24;4.32;;;1.55;;
34152;SDS011;20426;48.372;10.888;2023-05-10T00:11:55;3.15;;;1.75;;
34152;SDS011;20426;48.372;10.888;2023-05-10T00:12:28;1.30;;;1.17;;
34152;SDS011;20426;48.372;10.888;2023-05-10T00:12:59;2.60;;;1.25;;
34152;SDS011;20426;48.372;10.888;2023-05-10T00:13:30;1.52;;;1.20;;
34152;SDS011;20426;48.372;10.888;2023-05-10T00:14:01;1.55;;;1.30;;
34152;SDS011;20426;48.372;10.888;2023-05-10T00:14:31;3.35;;;1.55;;
34152;SDS011;20426;48.372;10.888;2023-05-10T00:15:02;1.35;;;1.23;;
34152;SDS011;20426;48.372;10.888;2023-05-10T00:15:33;2.58;;;1.35;;
34152;SDS011;20426;48.372;10.888;2023-05-10T00:16:04;1.65;;;1.17;;
34152;SDS011;20426;48.372;10.888;2023-05-10T00:16:35;1.67;;;1.10;;
34152;SDS011;20426;48.372;10.888;2023-05-10T00:17:06;1.90;;;1.50;;
34152;SDS011;20426;48.372;10.888;2023-05-10T00:17:37;1.60;;;1.50;;
34152;SDS011;20426;48.372;10.888;2023-05-10T00:18:07;3.25;;;1.67;;
34152;SDS011;20426;48.372;10.888;2023-05-10T00:18:38;2.13;;;1.30;;
34152;SDS011;20426;48.372;10.888;2023-05-10T00:19:09;4.40;;;1.48;;
34152;SDS011;20426;48.372;10.888;2023-05-10T00:19:40;2.85;;;1.20;;
34152;SDS011;20426;48.372;10.888;2023-05-10T00:20:11;1.88;;;1.23;;
34152;SDS011;20426;48.372;10.888;2023-05-10T00:20:42;1.75;;;1.60;;
34152;SDS011;20426;48.372;10.888;2023-05-10T00:21:12;2.70;;;1.75;;
34152;SDS011;20426;48.372;10.888;2023-05-10T00:21:43;1.65;;;1.48;;
34152;SDS011;20426;48.372;10.888;2023-05-10T00:22:14;1.77;;;1.48;;
34152;SDS011;20426;48.372;10.888;2023-05-10T00:22:45;1.30;;;1.20;;
34152;SDS011;20426;48.372;10.888;2023-05-10T00:23:15;1.30;;;1.20;;
34152;SDS011;20426;48.372;10.888;2023-05-10T00:23:46;1.63;;;1.30;;
34152;SDS011;20426;48.372;10.888;2023-05-10T00:24:17;1.25;;;1.15;;
34152;SDS011;20426;48.372;10.888;2023-05-10T00:24:47;3.75;;;1.60;;
34152;SDS011;20426;48.372;10.888;2023-05-10T00:25:18;1.88;;;1.25;;
34152;SDS011;20426;48.372;10.888;2023-05-10T00:25:49;1.55;;;1.20;;
34152;SDS011;20426;48.372;10.888;2023-05-10T00:26:20;1.88;;;1.33;;
34152;SDS011;20426;48.372;10.888;2023-05-10T00:26:51;1.65;;;1.45;;
34152;SDS011;20426;48.372;10.888;2023-05-10T00:27:21;1.50;;;1.40;;
34152;SDS011;20426;48.372;10.888;2023-05-10T00:27:52;1.17;;;1.08;;
34152;SDS011;20426;48.372;10.888;2023-05-10T00:28:25;1.38;;;1.27;;
34152;SDS011;20426;48.372;10.888;2023-05-10T00:28:57;1.65;;;1.35;;
34152;SDS011;20426;48.372;10.888;2023-05-10T00:29:28;1.38;;;1.25;;
34152;SDS011;20426;48.372;10.888;2023-05-10T00:29:59;1.40;;;1.23;;
34152;SDS011;20426;48.372;10.888;2023-05-10T00:30:30;1.40;;;1.30;;
34152;SDS011;20426;48.372;10.888;2023-05-10T00:31:00;1.60;;;1.33;;
34152;SDS011;20426;48.372;10.888;2023-05-10T00:31:31;1.17;;;1.08;;
34152;SDS011;20426;48.372;10.888;2023-05-10T00:32:02;1.95;;;1.20;;
34152;SDS011;20426;48.372;10.888;2023-05-10T00:32:33;1.60;;;1.40;;
34152;SDS011;20426;48.372;10.888;2023-05-10T00:33:03;3.13;;;1.40;;
34152;SDS011;20426;48.372;10.888;2023-05-10T00:33:34;1.90;;;1.52;;
34152;SDS011;20426;48.372;10.888;2023-05-10T00:34:05;1.70;;;1.50;;
34152;SDS011;20426;48.372;10.888;2023-05-10T00:34:35;1.10;;;1.00;;
34152;SDS011;20426;48.372;10.888;2023-05-10T00:35:06;1.80;;;1.25;;
34152;SDS011;20426;48.372;10.888;2023-05-10T00:35:37;1.40;;;1.30;;
34152;SDS011;20426;48.372;10.888;2023-05-10T00:36:08;1.33;;;1.23;;
34152;SDS011;20426;48.372;10.888;2023-05-10T00:36:39;2.67;;;1.38;;
34152;SDS011;20426;48.372;10.888;2023-05-10T00:37:10;1.40;;;1.30;;
34152;SDS011;20426;48.372;10.888;2023-05-10T00:37:41;1.80;;;1.17;;
34152;SDS011;20426;48.372;10.888;2023-05-10T00:38:12;1.30;;;1.17;;
34152;SDS011;20426;48.372;10.888;2023-05-10T00:38:43;1.30;;;1.20;;
34152;SDS011;20426;48.372;10.888;2023-05-10T00:39:13;1.15;;;0.98;;
34152;SDS011;20426;48.372;10.888;2023-05-10T00:39:44;1.88;;;1.52;;
34152;SDS011;20426;48.372;10.888;2023-05-10T00:40:15;1.90;;;1.30;;
34152;SDS011;20426;48.372;10.888;2023-05-10T00:40:46;1.30;;;1.20;;
34152;SDS011;20426;48.372;10.888;2023-05-10T00:41:17;1.77;;;1.23;;
34152;SDS011;20426;48.372;10.888;2023-05-10T00:41:47;1.30;;;1.20;;
34152;SDS011;20426;48.372;10.888;2023-05-10T00:42:18;1.48;;;1.38;;
34152;SDS011;20426;48.372;10.888;2023-05-10T00:42:49;1.50;;;1.40;;
34152;SDS011;20426;48.372;10.888;2023-05-10T00:43:19;1.50;;;1.38;;
34152;SDS011;20426;48.372;10.888;2023-05-10T00:43:50;1.58;;;1.48;;
34152;SDS011;20426;48.372;10.888;2023-05-10T00:44:21;1.42;;;1.10;;
34152;SDS011;20426;48.372;10.888;2023-05-10T00:44:51;2.80;;;1.40;;
34152;SDS011;20426;48.372;10.888;2023-05-10T00:45:22;1.38;;;1.27;;
34152;SDS011;20426;48.372;10.888;2023-05-10T00:45:53;1.30;;;1.20;;
34152;SDS011;20426;48.372;10.888;2023-05-10T00:46:24;3.65;;;1.30;;
34152;SDS011;20426;48.372;10.888;2023-05-10T00:46:56;1.40;;;1.15;;
34152;SDS011;20426;48.372;10.888;2023-05-10T00:47:27;1.50;;;1.30;;
34152;SDS011;20426;48.372;10.888;2023-05-10T00:47:59;2.10;;;1.40;;
34152;SDS011;20426;48.372;10.888;2023-05-10T00:48:32;1.30;;;1.20;;
34152;SDS011;20426;48.372;10.888;2023-05-10T00:49:03;1.10;;;1.00;;
34152;SDS011;20426;48.372;10.888;2023-05-10T00:49:34;0.98;;;0.98;;
34152;SDS011;20426;48.372;10.888;2023-05-10T00:50:06;1.27;;;1.17;;
34152;SDS011;20426;48.372;10.888;2023-05-10T00:50:37;1.25;;;1.10;;
34152;SDS011;20426;48.372;10.888;2023-05-10T00:51:10;1.33;;;1.20;;
34152;SDS011;20426;48.372;10.888;2023-05-10T00:51:40;1.08;;;1.00;;
34152;SDS011;20426;48.372;10.888;2023-05-10T00:52:13;2.33;;;1.23;;
34152;SDS011;20426;48.372;10.888;2023-05-10T00:52:44;1.20;;;1.10;;
34152;SDS011;20426;48.372;10.888;2023-05-10T00:53:14;1.42;;;1.10;;
34152;SDS011;20426;48.372;10.888;2023-05-10T00:53:46;1.90;;;1.20;;
34152;SDS011;20426;48.372;10.888;2023-05-10T00:54:16;0.95;;;0.95;;
34152;SDS011;20426;48.372;10.888;2023-05-10T00:54:47;1.10;;;1.00;;
34152;SDS011;20426;48.372;10.888;2023-05-10T00:55:19;0.98;;;0.93;;
34152;SDS011;20426;48.372;10.888;2023-05-10T00:55:50;1.25;;;1.15;;
34152;SDS011;20426;48.372;10.888;2023-05-10T00:56:21;1.95;;;1.17;;
34152;SDS011;20426;48.372;10.888;2023-05-10T00:56:53;1.10;;;1.00;;
34152;SDS011;20426;48.372;10.888;2023-05-10T00:57:24;1.23;;;1.13;;
34152;SDS011;20426;48.372;10.888;2023-05-10T00:57:55;1.15;;;1.05;;
34152;SDS011;20426;48.372;10.888;2023-05-10T00:58:26;2.67;;;0.90;;
34152;SDS011;20426;48.372;10.888;2023-05-10T00:58:58;1.23;;;1.00;;
34152;SDS011;20426;48.372;10.888;2023-05-10T00:59:29;1.30;;;1.20;;
34152;SDS011;20426;48.372;10.888;2023-05-10T01:00:01;1.25;;;1.15;;
34152;SDS011;20426;48.372;10.888;2023-05-10T01:00:33;0.90;;;0.90;;
34152;SDS011;20426;48.372;10.888;2023-05-10T01:01:04;1.80;;;1.10;;
34152;SDS011;20426;48.372;10.888;2023-05-10T01:01:36;1.35;;;1.25;;
34152;SDS011;20426;48.372;10.888;2023-05-10T01:02:07;1.08;;;1.05;;
34152;SDS011;20426;48.372;10.888;2023-05-10T01:02:38;1.45;;;0.90;;
34152;SDS011;20426;48.372;10.888;2023-05-10T01:03:10;1.67;;;1.00;;
34152;SDS011;20426;48.372;10.888;2023-05-10T01:03:41;1.15;;;1.05;;
34152;SDS011;20426;48.372;10.888;2023-05-10T01:04:12;1.20;;;1.00;;
34152;SDS011;20426;48.372;10.888;2023-05-10T01:04:44;1.40;;;1.20;;
34152;SDS011;20426;48.372;10.888;2023-05-10T01:05:15;1.45;;;0.98;;
34152;SDS011;20426;48.372;10.888;2023-05-10T01:05:45;1.35;;;1.15;;
34152;SDS011;20426;48.372;10.888;2023-05-10T01:06:16;1.20;;;0.90;;
34152;SDS011;20426;48.372;10.888;2023-05-10T01:06:47;2.22;;;1.02;;
34152;SDS011;20426;48.372;10.888;2023-05-10T01:07:17;0.98;;;0.98;;
34152;SDS011;20426;48.372;10.888;2023-05-10T01:07:48;1.08;;;0.90;;
34152;SDS011;20426;48.372;10.888;2023-05-10T01:08:19;1.42;;;1.10;;
34152;SDS011;20426;48.372;10.888;2023-05-10T01:08:50;1.13;;;0.95;;
34152;SDS011;20426;48.372;10.888;2023-05-10T01:09:21;0.93;;;0.90;;
34152;SDS011;20426;48.372;10.888;2023-05-10T01:09:52;1.05;;;0.90;;
34152;SDS011;20426;48.372;10.888;2023-05-10T01:10:23;2.35;;;1.00;;
34152;SDS011;20426;48.372;10.888;2023-05-10T01:10:54;1.02;;;0.90;;
34152;SDS011;20426;48.372;10.888;2023-05-10T01:11:25;0.80;;;0.80;;
34152;SDS011;20426;48.372;10.888;2023-05-10T01:11:56;1.77;;;0.70;;
34152;SDS011;20426;48.372;10.888;2023-05-10T01:12:26;0.90;;;0.90;;
34152;SDS011;20426;48.372;10.888;2023-05-10T01:12:57;0.98;;;0.95;;
34152;SDS011;20426;48.372;10.888;2023-05-10T01:13:36;1.65;;;1.08;;
34152;SDS011;20426;48.372;10.888;2023-05-10T01:14:07;0.85;;;0.85;;
34152;SDS011;20426;48.372;10.888;2023-05-10T01:14:39;1.00;;;0.90;;
34152;SDS011;20426;48.372;10.888;2023-05-10T01:15:10;1.05;;;0.82;;
34152;SDS011;20426;48.372;10.888;2023-05-10T01:15:42;1.15;;;1.02;;
34152;SDS011;20426;48.372;10.888;2023-05-10T01:16:13;0.85;;;0.85;;
34152;SDS011;20426;48.372;10.888;2023-05-10T01:16:44;2.65;;;1.50;;
34152;SDS011;20426;48.372;10.888;2023-05-10T01:17:15;1.00;;;0.90;;
34152;SDS011;20426;48.372;10.888;2023-05-10T01:17:46;0.90;;;0.90;;
34152;SDS011;20426;48.372;10.888;2023-05-10T01:18:18;1.10;;;1.00;;
34152;SDS011;20426;48.372;10.888;2023-05-10T01:18:51;1.05;;;0.95;;
34152;SDS011;20426;48.372;10.888;2023-05-10T01:19:23;2.33;;;0.98;;
34152;SDS011;20426;48.372;10.888;2023-05-10T01:19:56;2.30;;;0.93;;
34152;SDS011;20426;48.372;10.888;2023-05-10T01:20:27;1.20;;;1.10;;
34152;SDS011;20426;48.372;10.888;2023-05-10T01:21:38;0.90;;;0.90;;
34152;SDS011;20426;48.372;10.888;2023-05-10T01:33:09;1.10;;;1.00;;
34152;SDS011;20426;48.372;10.888;2023-05-10T01:33:25;0.85;;;0.80;;
34152;SDS011;20426;48.372;10.888;2023-05-10T01:34:08;1.05;;;0.95;;
34152;SDS011;20426;48.372;10.888;2023-05-10T01:34:47;1.00;;;0.90;;
34152;SDS011;20426;48.372;10.888;2023-05-10T01:35:31;1.70;;;0.93;;
34152;SDS011;20426;48.372;10.888;2023-05-10T01:36:09;1.10;;;1.00;;
34152;SDS011;20426;48.372;10.888;2023-05-10T01:37:10;0.73;;;0.73;;
34152;SDS011;20426;48.372;10.888;2023-05-10T01:39:24;0.98;;;0.90;;
34152;SDS011;20426;48.372;10.888;2023-05-10T01:40:08;0.85;;;0.85;;
34152;SDS011;20426;48.372;10.888;2023-05-10T01:41:00;0.80;;;0.80;;
34152;SDS011;20426;48.372;10.888;2023-05-10T01:42:24;0.98;;;0.88;;
34152;SDS011;20426;48.372;10.888;2023-05-10T01:43:02;0.90;;;0.90;;
34152;SDS011;20426;48.372;10.888;2023-05-10T01:44:41;1.65;;;1.00;;
34152;SDS011;20426;48.372;10.888;2023-05-10T01:45:37;1.05;;;0.95;;
34152;SDS011;20426;48.372;10.888;2023-05-10T01:46:10;1.25;;;0.85;;
34152;SDS011;20426;48.372;10.888;2023-05-10T01:46:49;0.82;;;0.82;;
34152;SDS011;20426;48.372;10.888;2023-05-10T01:47:35;1.17;;;0.98;;
34152;SDS011;20426;48.372;10.888;2023-05-10T01:48:10;0.65;;;0.65;;
34152;SDS011;20426;48.372;10.888;2023-05-10T01:48:48;3.10;;;0.88;;
34152;SDS011;20426;48.372;10.888;2023-05-10T01:49:32;0.68;;;0.68;;
34152;SDS011;20426;48.372;10.888;2023-05-10T01:50:09;2.25;;;0.88;;
34152;SDS011;20426;48.372;10.888;2023-05-10T01:50:45;0.70;;;0.70;;
34152;SDS011;20426;48.372;10.888;2023-05-10T01:51:19;0.70;;;0.70;;
34152;SDS011;20426;48.372;10.888;2023-05-10T01:51:54;1.95;;;1.00;;
34152;SDS011;20426;48.372;10.888;2023-05-10T01:52:41;1.05;;;0.80;;
34152;SDS011;20426;48.372;10.888;2023-05-10T01:53:13;0.68;;;0.68;;
34152;SDS011;20426;48.372;10.888;2023-05-10T01:53:48;1.08;;;0.80;;
34152;SDS011;20426;48.372;10.888;2023-05-10T01:54:21;0.93;;;0.90;;
34152;SDS011;20426;48.372;10.888;2023-05-10T01:54:55;0.75;;;0.75;;
34152;SDS011;20426;48.372;10.888;2023-05-10T01:55:32;0.60;;;0.60;;
34152;SDS011;20426;48.372;10.888;2023-05-10T01:56:05;0.80;;;0.80;;
34152;SDS011;20426;48.372;10.888;2023-05-10T01:56:39;0.82;;;0.82;;
34152;SDS011;20426;48.372;10.888;2023-05-10T01:57:11;0.70;;;0.70;;
34152;SDS011;20426;48.372;10.888;2023-05-10T01:57:46;0.70;;;0.70;;
34152;SDS011;20426;48.372;10.888;2023-05-10T01:58:22;0.85;;;0.80;;
34152;SDS011;20426;48.372;10.888;2023-05-10T01:58:58;0.77;;;0.77;;
34152;SDS011;20426;48.372;10.888;2023-05-10T01:59:34;0.70;;;0.70;;
34152;SDS011;20426;48.372;10.888;2023-05-10T02:00:07;2.83;;;0.68;;
34152;SDS011;20426;48.372;10.888;2023-05-10T02:00:43;0.80;;;0.80;;
34152;SDS011;20426;48.372;10.888;2023-05-10T02:01:16;0.98;;;0.90;;
34152;SDS011;20426;48.372;10.888;2023-05-10T02:01:48;0.80;;;0.80;;
34152;SDS011;20426;48.372;10.888;2023-05-10T02:02:21;0.70;;;0.70;;
34152;SDS011;20426;48.372;10.888;2023-05-10T02:02:54;0.63;;;0.63;;
34152;SDS011;20426;48.372;10.888;2023-05-10T02:03:26;0.73;;;0.73;;
34152;SDS011;20426;48.372;10.888;2023-05-10T02:03:59;3.42;;;0.80;;
34152;SDS011;20426;48.372;10.888;2023-05-10T02:04:31;1.00;;;0.65;;
34152;SDS011;20426;48.372;10.888;2023-05-10T02:05:05;3.22;;;0.80;;
34152;SDS011;20426;48.372;10.888;2023-05-10T02:05:37;2.15;;;0.98;;
34152;SDS011;20426;48.372;10.888;2023-05-10T02:06:10;1.30;;;1.20;;
34152;SDS011;20426;48.372;10.888;2023-05-10T02:06:44;1.02;;;0.93;;
34152;SDS011;20426;48.372;10.888;2023-05-10T02:07:18;1.13;;;0.90;;
34152;SDS011;20426;48.372;10.888;2023-05-10T02:07:50;0.70;;;0.70;;
34152;SDS011;20426;48.372;10.888;2023-05-10T02:08:21;1.10;;;0.82;;
34152;SDS011;20426;48.372;10.888;2023-05-10T02:08:53;0.70;;;0.70;;
34152;SDS011;20426;48.372;10.888;2023-05-10T02:09:25;0.80;;;0.80;;
34152;SDS011;20426;48.372;10.888;2023-05-10T02:09:58;2.28;;;0.70;;
34152;SDS011;20426;48.372;10.888;2023-05-10T02:10:30;0.80;;;0.80;;
34152;SDS011;20426;48.372;10.888;2023-05-10T02:11:02;0.60;;;0.60;;
34152;SDS011;20426;48.372;10.888;2023-05-10T02:11:35;0.70;;;0.70;;
34152;SDS011;20426;48.372;10.888;2023-05-10T02:12:08;0.85;;;0.50;;
34152;SDS011;20426;48.372;10.888;2023-05-10T02:12:41;0.80;;;0.80;;
34152;SDS011;20426;48.372;10.888;2023-05-10T02:13:15;2.63;;;0.75;;
34152;SDS011;20426;48.372;10.888;2023-05-10T02:13:47;0.68;;;0.68;;
34152;SDS011;20426;48.372;10.888;2023-05-10T02:14:20;0.93;;;0.80;;
34152;SDS011;20426;48.372;10.888;2023-05-10T02:14:52;0.70;;;0.65;;
34152;SDS011;20426;48.372;10.888;2023-05-10T02:15:23;1.00;;;0.90;;
34152;SDS011;20426;48.372;10.888;2023-05-10T02:15:56;1.48;;;0.80;;
34152;SDS011;20426;48.372;10.888;2023-05-10T02:16:29;0.70;;;0.70;;
34152;SDS011;20426;48.372;10.888;2023-05-10T02:17:02;0.70;;;0.70;;
34152;SDS011;20426;48.372;10.888;2023-05-10T02:17:35;0.80;;;0.70;;
34152;SDS011;20426;48.372;10.888;2023-05-10T02:18:07;0.95;;;0.80;;
34152;SDS011;20426;48.372;10.888;2023-05-10T02:18:40;1.52;;;0.63;;
34152;SDS011;20426;48.372;10.888;2023-05-10T02:19:11;0.73;;;0.63;;
34152;SDS011;20426;48.372;10.888;2023-05-10T02:19:45;0.98;;;0.90;;
34152;SDS011;20426;48.372;10.888;2023-05-10T02:20:18;1.50;;;0.80;;
34152;SDS011;20426;48.372;10.888;2023-05-10T02:20:50;0.75;;;0.75;;
34152;SDS011;20426;48.372;10.888;2023-05-10T02:21:23;0.60;;;0.60;;
34152;SDS011;20426;48.372;10.888;2023-05-10T02:21:56;0.63;;;0.63;;
34152;SDS011;20426;48.372;10.888;2023-05-10T02:22:29;1.25;;;0.70;;
34152;SDS011;20426;48.372;10.888;2023-05-10T02:23:00;0.85;;;0.60;;
34152;SDS011;20426;48.372;10.888;2023-05-10T02:23:33;3.03;;;0.70;;
34152;SDS011;20426;48.372;10.888;2023-05-10T02:24:05;0.70;;;0.70;;
34152;SDS011;20426;48.372;10.888;2023-05-10T02:24:38;0.70;;;0.70;;
34152;SDS011;20426;48.372;10.888;2023-05-10T02:25:10;0.82;;;0.70;;
34152;SDS011;20426;48.372;10.888;2023-05-10T02:25:43;1.08;;;0.60;;
34152;SDS011;20426;48.372;10.888;2023-05-10T02:26:16;0.70;;;0.70;;
34152;SDS011;20426;48.372;10.888;2023-05-10T02:26:48;0.68;;;0.68;;
34152;SDS011;20426;48.372;10.888;2023-05-10T02:27:21;0.73;;;0.73;;
34152;SDS011;20426;48.372;10.888;2023-05-10T02:27:54;1.88;;;0.68;;
34152;SDS011;20426;48.372;10.888;2023-05-10T02:28:26;0.60;;;0.60;;
34152;SDS011;20426;48.372;10.888;2023-05-10T02:28:59;0.80;;;0.80;;
34152;SDS011;20426;48.372;10.888;2023-05-10T02:29:33;0.60;;;0.60;;
34152;SDS011;20426;48.372;10.888;2023-05-10T02:30:05;2.85;;;0.80;;
34152;SDS011;20426;48.372;10.888;2023-05-10T02:30:37;0.70;;;0.70;;
34152;SDS011;20426;48.372;10.888;2023-05-10T02:31:08;3.03;;;0.63;;
34152;SDS011;20426;48.372;10.888;2023-05-10T02:31:40;0.60;;;0.60;;
34152;SDS011;20426;48.372;10.888;2023-05-10T02:32:13;0.60;;;0.60;;
34152;SDS011;20426;48.372;10.888;2023-05-10T02:32:46;1.23;;;0.60;;
34152;SDS011;20426;48.372;10.888;2023-05-10T02:33:19;0.95;;;0.50;;
34152;SDS011;20426;48.372;10.888;2023-05-10T02:33:51;0.60;;;0.60;;
34152;SDS011;20426;48.372;10.888;2023-05-10T02:34:23;0.90;;;0.68;;
34152;SDS011;20426;48.372;10.888;2023-05-10T02:34:56;6.95;;;0.85;;
34152;SDS011;20426;48.372;10.888;2023-05-10T02:35:28;1.02;;;0.70;;
34152;SDS011;20426;48.372;10.888;2023-05-10T02:36:01;0.63;;;0.63;;
34152;SDS011;20426;48.372;10.888;2023-05-10T02:36:32;0.47;;;0.47;;
34152;SDS011;20426;48.372;10.888;2023-05-10T02:37:04;1.00;;;0.60;;
34152;SDS011;20426;48.372;10.888;2023-05-10T02:37:36;0.45;;;0.45;;
34152;SDS011;20426;48.372;10.888;2023-05-10T02:38:08;0.50;;;0.50;;
34152;SDS011;20426;48.372;10.888;2023-05-10T02:38:40;0.70;;;0.70;;
34152;SDS011;20426;48.372;10.888;2023-05-10T02:39:11;1.55;;;0.68;;
34152;SDS011;20426;48.372;10.888;2023-05-10T02:39:44;0.80;;;0.68;;
34152;SDS011;20426;48.372;10.888;2023-05-10T02:40:20;0.65;;;0.60;;
34152;SDS011;20426;48.372;10.888;2023-05-10T02:40:52;0.50;;;0.50;;
34152;SDS011;20426;48.372;10.888;2023-05-10T02:41:24;0.57;;;0.57;;
34152;SDS011;20426;48.372;10.888;2023-05-10T02:41:56;0.60;;;0.60;;
34152;SDS011;20426;48.372;10.888;2023-05-10T02:42:27;0.95;;;0.50;;
34152;SDS011;20426;48.372;10.888;2023-05-10T02:43:01;0.50;;;0.50;;
34152;SDS011;20426;48.372;10.888;2023-05-10T02:43:34;0.47;;;0.47;;
34152;SDS011;20426;48.372;10.888;2023-05-10T02:44:06;0.50;;;0.50;;
34152;SDS011;20426;48.372;10.888;2023-05-10T02:44:39;0.60;;;0.60;;
34152;SDS011;20426;48.372;10.888;2023-05-10T02:45:12;0.57;;;0.57;;
34152;SDS011;20426;48.372;10.888;2023-05-10T02:45:46;0.80;;;0.50;;
34152;SDS011;20426;48.372;10.888;2023-05-10T02:46:18;0.47;;;0.47;;
34152;SDS011;20426;48.372;10.888;2023-05-10T02:46:49;0.73;;;0.60;;
34152;SDS011;20426;48.372;10.888;2023-05-10T02:47:20;0.55;;;0.55;;
34152;SDS011;20426;48.372;10.888;2023-05-10T02:47:51;2.45;;;0.60;;
34152;SDS011;20426;48.372;10.888;2023-05-10T02:48:22;0.50;;;0.50;;
34152;SDS011;20426;48.372;10.888;2023-05-10T02:48:52;4.07;;;0.57;;
34152;SDS011;20426;48.372;10.888;2023-05-10T02:49:23;0.52;;;0.52;;
34152;SDS011;20426;48.372;10.888;2023-05-10T02:49:54;0.60;;;0.60;;
34152;SDS011;20426;48.372;10.888;2023-05-10T02:50:25;0.50;;;0.50;;
34152;SDS011;20426;48.372;10.888;2023-05-10T02:51:00;0.50;;;0.50;;
34152;SDS011;20426;48.372;10.888;2023-05-10T02:51:35;0.60;;;0.60;;
34152;SDS011;20426;48.372;10.888;2023-05-10T02:52:10;0.40;;;0.40;;
34152;SDS011;20426;48.372;10.888;2023-05-10T02:52:50;1.65;;;0.60;;
34152;SDS011;20426;48.372;10.888;2023-05-10T02:53:23;0.70;;;0.60;;
34152;SDS011;20426;48.372;10.888;2023-05-10T02:54:00;0.50;;;0.50;;
34152;SDS011;20426;48.372;10.888;2023-05-10T02:54:41;0.60;;;0.60;;
34152;SDS011;20426;48.372;10.888;2023-05-10T02:55:15;0.57;;;0.57;;
34152;SDS011;20426;48.372;10.888;2023-05-10T02:55:49;0.55;;;0.55;;
34152;SDS011;20426;48.372;10.888;2023-05-10T02:56:28;0.63;;;0.63;;
34152;SDS011;20426;48.372;10.888;2023-05-10T02:57:04;1.55;;;0.80;;
34152;SDS011;20426;48.372;10.888;2023-05-10T02:57:37;0.70;;;0.57;;
34152;SDS011;20426;48.372;10.888;2023-05-10T02:58:11;1.10;;;0.63;;
34152;SDS011;20426;48.372;10.888;2023-05-10T02:58:42;1.10;;;0.57;;
34152;SDS011;20426;48.372;10.888;2023-05-10T02:59:12;2.45;;;0.50;;
34152;SDS011;20426;48.372;10.888;2023-05-10T02:59:43;0.65;;;0.60;;
34152;SDS011;20426;48.372;10.888;2023-05-10T03:00:15;0.70;;;0.47;;
34152;SDS011;20426;48.372;10.888;2023-05-10T03:00:46;0.73;;;0.70;;
34152;SDS011;20426;48.372;10.888;2023-05-10T03:01:16;1.40;;;0.73;;
34152;SDS011;20426;48.372;10.888;2023-05-10T03:01:47;0.63;;;0.63;;
34152;SDS011;20426;48.372;10.888;2023-05-10T03:02:18;0.70;;;0.70;;
34152;SDS011;20426;48.372;10.888;2023-05-10T03:02:50;0.40;;;0.40;;
34152;SDS011;20426;48.372;10.888;2023-05-10T03:03:20;0.52;;;0.52;;
34152;SDS011;20426;48.372;10.888;2023-05-10T03:03:51;0.90;;;0.65;;
34152;SDS011;20426;48.372;10.888;2023-05-10T03:04:22;2.55;;;0.60;;
34152;SDS011;20426;48.372;10.888;2023-05-10T03:04:52;1.00;;;0.70;;
34152;SDS011;20426;48.372;10.888;2023-05-10T03:05:23;0.57;;;0.57;;
34152;SDS011;20426;48.372;10.888;2023-05-10T03:05:54;0.50;;;0.50;;
34152;SDS011;20426;48.372;10.888;2023-05-10T03:06:25;1.30;;;0.60;;
34152;SDS011;20426;48.372;10.888;2023-05-10T03:06:56;0.95;;;0.73;;
34152;SDS011;20426;48.372;10.888;2023-05-10T03:07:27;0.50;;;0.50;;
34152;SDS011;20426;48.372;10.888;2023-05-10T03:07:58;0.38;;;0.38;;
34152;SDS011;20426;48.372;10.888;2023-05-10T03:08:33;0.50;;;0.50;;
34152;SDS011;20426;48.372;10.888;2023-05-10T03:09:04;0.65;;;0.60;;
34152;SDS011;20426;48.372;10.888;2023-05-10T03:09:35;1.20;;;0.80;;
34152;SDS011;20426;48.372;10.888;2023-05-10T03:10:06;1.42;;;0.70;;
34152;SDS011;20426;48.372;10.888;2023-05-10T03:10:44;1.00;;;0.63;;
34152;SDS011;20426;48.372;10.888;2023-05-10T03:12:27;0.55;;;0.55;;
34152;SDS011;20426;48.372;10.888;2023-05-10T03:13:28;1.00;;;0.60;;
34152;SDS011;20426;48.372;10.888;2023-05-10T03:16:24;0.50;;;0.50;;
34152;SDS011;20426;48.372;10.888;2023-05-10T03:18:06;0.43;;;0.43;;
34152;SDS011;20426;48.372;10.888;2023-05-10T03:21:16;0.30;;;0.30;;
34152;SDS011;20426;48.372;10.888;2023-05-10T03:21:49;0.50;;;0.50;;
34152;SDS011;20426;48.372;10.888;2023-05-10T03:22:32;0.50;;;0.50;;
34152;SDS011;20426;48.372;10.888;2023-05-10T03:24:39;0.40;;;0.40;;
34152;SDS011;20426;48.372;10.888;2023-05-10T03:25:11;0.60;;;0.50;;
34152;SDS011;20426;48.372;10.888;2023-05-10T03:25:45;0.40;;;0.40;;
34152;SDS011;20426;48.372;10.888;2023-05-10T03:26:20;0.65;;;0.50;;
34152;SDS011;20426;48.372;10.888;2023-05-10T03:26:57;0.60;;;0.30;;
34152;SDS011;20426;48.372;10.888;2023-05-10T03:27:32;0.98;;;0.60;;
34152;SDS011;20426;48.372;10.888;2023-05-10T03:28:05;0.43;;;0.43;;
34152;SDS011;20426;48.372;10.888;2023-05-10T03:28:36;0.40;;;0.40;;
34152;SDS011;20426;48.372;10.888;2023-05-10T03:29:07;0.40;;;0.40;;
34152;SDS011;20426;48.372;10.888;2023-05-10T03:29:39;0.40;;;0.40;;
34152;SDS011;20426;48.372;10.888;2023-05-10T03:30:10;0.50;;;0.50;;
34152;SDS011;20426;48.372;10.888;2023-05-10T03:30:42;0.40;;;0.40;;
34152;SDS011;20426;48.372;10.888;2023-05-10T03:31:14;0.50;;;0.50;;
34152;SDS011;20426;48.372;10.888;2023-05-10T03:31:45;0.40;;;0.40;;
34152;SDS011;20426;48.372;10.888;2023-05-10T03:32:15;0.40;;;0.40;;
34152;SDS011;20426;48.372;10.888;2023-05-10T03:32:46;0.93;;;0.70;;
34152;SDS011;20426;48.372;10.888;2023-05-10T03:33:17;0.40;;;0.40;;
34152;SDS011;20426;48.372;10.888;2023-05-10T03:33:48;1.23;;;0.50;;
34152;SDS011;20426;48.372;10.888;2023-05-10T03:34:23;0.40;;;0.40;;
34152;SDS011;20426;48.372;10.888;2023-05-10T03:34:54;1.70;;;0.45;;
34152;SDS011;20426;48.372;10.888;2023-05-10T03:35:25;0.57;;;0.43;;
34152;SDS011;20426;48.372;10.888;2023-05-10T03:35:55;0.40;;;0.40;;
34152;SDS011;20426;48.372;10.888;2023-05-10T03:36:26;0.90;;;0.50;;
34152;SDS011;20426;48.372;10.888;2023-05-10T03:36:57;0.40;;;0.40;;